Time;durP1;ratioP1;P1;durP2;ratioP2;P2;SDS_P1;SDS_P2;PMS_P1;PMS_P2;Temp;Humidity;BMP_temperature;BMP_pressure;BME280_temperature;BME280_humidity;BME280_pressure;Samples;Min_cycle;Max_cycle;Signal;HPM_P1;HPM_P2
2021/09/23 00:00:04;;;;;;;15.70;10.20;;;14.50;74.00;;;;;;5098484;28;20124;-77
2021/09/23 00:02:47;;;;;;;14.38;10.80;;;14.50;74.00;;;;;;5098344;28;20395;-78
2021/09/23 00:05:24;;;;;;;13.25;10.30;;;14.50;74.00;;;;;;5098293;28;20019;-78
2021/09/23 00:07:53;;;;;;;13.75;10.35;;;14.40;74.00;;;;;;5098195;28;20027;-76
2021/09/23 00:10:31;;;;;;;14.00;10.65;;;14.40;74.00;;;;;;5098067;28;20475;-76
2021/09/23 00:12:58;;;;;;;13.38;10.45;;;14.40;74.00;;;;;;5098058;28;20031;-77
2021/09/23 00:15:24;;;;;;;16.70;10.52;;;14.40;74.00;;;;;;5098073;28;20019;-76
2021/09/23 00:17:52;;;;;;;12.93;9.95;;;14.40;74.00;;;;;;5116163;28;20016;-76
2021/09/23 00:20:22;;;;;;;15.00;10.15;;;14.40;74.00;;;;;;5097783;28;20386;-76
2021/09/23 00:22:49;;;;;;;13.32;10.32;;;14.30;74.00;;;;;;5097773;28;20388;-76
2021/09/23 00:25:14;;;;;;;14.25;10.57;;;14.30;74.00;;;;;;5097010;28;20046;-76
2021/09/23 00:27:44;;;;;;;14.25;10.70;;;14.30;74.00;;;;;;5096416;28;20111;-76
2021/09/23 00:30:10;;;;;;;14.48;9.90;;;14.30;74.10;;;;;;5096331;28;20020;-76
2021/09/23 00:32:36;;;;;;;15.90;10.25;;;14.30;74.10;;;;;;5096415;28;20020;-77
2021/09/23 00:35:03;;;;;;;15.55;10.82;;;14.30;74.10;;;;;;5096344;28;20058;-76
2021/09/23 00:37:29;;;;;;;15.70;11.40;;;14.30;74.20;;;;;;5095951;28;20106;-77
2021/09/23 00:39:54;;;;;;;19.67;11.27;;;14.30;74.20;;;;;;5096419;28;20059;-77
2021/09/23 00:42:20;;;;;;;19.45;11.90;;;14.30;74.30;;;;;;5096380;28;20020;-76
2021/09/23 00:44:56;;;;;;;16.38;11.40;;;14.30;74.30;;;;;;5093272;28;20075;-77
2021/09/23 00:47:22;;;;;;;16.60;11.65;;;14.20;74.40;;;;;;5096583;28;20151;-76
2021/09/23 00:49:49;;;;;;;13.32;9.98;;;14.20;74.40;;;;;;5096107;28;20015;-76
2021/09/23 00:52:14;;;;;;;17.73;11.57;;;14.20;74.40;;;;;;5096092;28;20049;-77
2021/09/23 00:54:40;;;;;;;17.10;11.43;;;14.20;74.50;;;;;;5114443;28;20058;-77
2021/09/23 00:57:06;;;;;;;17.67;11.82;;;14.20;74.60;;;;;;5095961;28;20020;-78
2021/09/23 00:59:31;;;;;;;17.70;11.93;;;14.10;74.60;;;;;;5096126;28;20179;-77
2021/09/23 01:01:57;;;;;;;17.92;11.38;;;14.10;74.60;;;;;;5096292;28;20024;-77
2021/09/23 01:04:25;;;;;;;14.20;10.90;;;14.10;74.70;;;;;;5095928;28;20027;-77
2021/09/23 01:06:52;;;;;;;17.02;11.65;;;14.10;74.70;;;;;;5096001;28;20032;-76
2021/09/23 01:09:17;;;;;;;17.13;10.93;;;14.10;74.80;;;;;;5095810;28;20030;-77
2021/09/23 01:11:43;;;;;;;17.90;11.50;;;14.00;74.80;;;;;;5095846;28;20110;-77
2021/09/23 01:14:11;;;;;;;20.10;11.55;;;14.00;74.80;;;;;;5095662;28;20020;-77
2021/09/23 01:16:37;;;;;;;16.95;11.68;;;14.00;74.90;;;;;;5095696;28;20047;-76
2021/09/23 01:19:03;;;;;;;16.77;12.18;;;14.00;74.90;;;;;;5095797;28;20031;-77
2021/09/23 01:21:29;;;;;;;16.83;11.98;;;14.00;75.00;;;;;;5095710;28;20031;-77
2021/09/23 01:23:55;;;;;;;16.58;12.20;;;14.00;75.00;;;;;;5095773;28;20047;-77
2021/09/23 01:26:26;;;;;;;20.48;12.77;;;14.00;75.10;;;;;;5058133;28;1085234;-77
2021/09/23 01:28:53;;;;;;;17.27;12.38;;;13.90;75.10;;;;;;5096545;28;20028;-77
2021/09/23 01:31:20;;;;;;;19.00;12.90;;;13.90;75.20;;;;;;5115009;28;20059;-77
2021/09/23 01:33:46;;;;;;;17.65;11.70;;;13.90;75.20;;;;;;5115010;28;20077;-77
2021/09/23 01:36:12;;;;;;;18.98;12.30;;;13.90;75.40;;;;;;5096512;28;20024;-76
2021/09/23 01:38:37;;;;;;;19.55;12.35;;;13.80;75.40;;;;;;5096356;28;20027;-77
2021/09/23 01:41:03;;;;;;;19.15;12.75;;;13.80;75.40;;;;;;5096563;28;20066;-76
2021/09/23 01:43:28;;;;;;;18.42;12.50;;;13.80;75.40;;;;;;5096489;28;20031;-77
2021/09/23 01:45:55;;;;;;;20.48;12.70;;;13.80;75.50;;;;;;5114719;28;20035;-77
2021/09/23 01:48:21;;;;;;;18.70;11.70;;;13.80;75.60;;;;;;5095976;28;20019;-77
2021/09/23 01:50:46;;;;;;;22.17;12.35;;;13.70;75.60;;;;;;5096019;28;20035;-77
2021/09/23 01:53:12;;;;;;;19.25;12.30;;;13.70;75.60;;;;;;5096394;28;20111;-77
2021/09/23 01:55:38;;;;;;;20.67;12.95;;;13.70;75.70;;;;;;5096342;28;20020;-77
2021/09/23 01:58:03;;;;;;;20.30;13.00;;;13.70;75.70;;;;;;5096382;28;20038;-77
2021/09/23 02:00:29;;;;;;;19.27;12.15;;;13.70;75.80;;;;;;5096143;28;20036;-77
2021/09/23 02:02:56;;;;;;;22.30;13.32;;;13.70;75.80;;;;;;5095928;28;20027;-78
2021/09/23 02:05:22;;;;;;;21.00;13.02;;;13.60;76.40;;;;;;5095993;28;20431;-77
2021/09/23 02:07:48;;;;;;;17.50;11.77;;;13.70;75.90;;;;;;5092770;28;20036;-77
2021/09/23 02:10:14;;;;;;;21.42;12.85;;;13.70;75.90;;;;;;5095798;28;20108;-78
2021/09/23 02:12:40;;;;;;;21.02;12.52;;;13.70;75.90;;;;;;5114109;28;20479;-77
2021/09/23 02:15:08;;;;;;;22.70;13.50;;;13.60;75.90;;;;;;5114019;28;20106;-77
2021/09/23 02:17:34;;;;;;;19.65;13.10;;;13.60;76.00;;;;;;5095770;28;20066;-77
2021/09/23 02:20:00;;;;;;;19.00;12.10;;;13.60;76.00;;;;;;5095698;28;20031;-77
2021/09/23 02:22:26;;;;;;;23.23;12.63;;;13.60;76.10;;;;;;5095471;28;20039;-77
2021/09/23 02:24:53;;;;;;;22.33;13.20;;;13.60;76.10;;;;;;5093728;28;20495;-77
2021/09/23 02:27:19;;;;;;;24.80;14.32;;;13.50;76.10;;;;;;5095408;28;20152;-77
2021/09/23 02:29:45;;;;;;;23.10;13.98;;;13.50;76.10;;;;;;5095317;28;20024;-76
2021/09/23 02:32:11;;;;;;;24.90;13.02;;;13.50;76.20;;;;;;5095460;28;20038;-76
2021/09/23 02:34:38;;;;;;;28.30;13.30;;;13.50;76.20;;;;;;5095461;28;20054;-77
2021/09/23 02:37:04;;;;;;;21.67;13.23;;;13.40;76.20;;;;;;5113637;28;20398;-76
2021/09/23 02:39:31;;;;;;;24.20;13.02;;;13.50;76.30;;;;;;5095183;28;20031;-77
2021/09/23 02:41:56;;;;;;;22.90;14.50;;;13.50;76.30;;;;;;5095148;28;20055;-77
2021/09/23 02:44:22;;;;;;;26.15;14.10;;;13.40;76.30;;;;;;5095348;28;20054;-77
2021/09/23 02:46:48;;;;;;;23.63;13.07;;;13.40;76.40;;;;;;5095042;28;20023;-77
2021/09/23 02:49:14;;;;;;;23.77;14.23;;;13.40;76.40;;;;;;5094987;28;20085;-77
2021/09/23 02:51:39;;;;;;;28.38;14.20;;;13.40;76.50;;;;;;5095137;28;20032;-77
2021/09/23 02:54:05;;;;;;;24.55;14.07;;;13.40;77.20;;;;;;5095041;28;20035;-77
2021/09/23 02:56:31;;;;;;;23.10;13.40;;;13.40;76.60;;;;;;5095090;28;20024;-77
2021/09/23 02:58:57;;;;;;;21.63;13.25;;;13.40;76.60;;;;;;5095245;28;20046;-77
2021/09/23 03:01:23;;;;;;;25.48;13.70;;;13.30;76.50;;;;;;5094934;28;20016;-77
2021/09/23 03:03:48;;;;;;;23.45;13.35;;;13.30;76.60;;;;;;5094913;28;20023;-77
2021/09/23 03:06:14;;;;;;;25.48;14.20;;;13.30;76.60;;;;;;5113280;28;20027;-77
2021/09/23 03:08:40;;;;;;;29.92;14.57;;;13.30;76.60;;;;;;5094833;28;20024;-77
2021/09/23 03:11:06;;;;;;;23.35;13.48;;;13.30;76.70;;;;;;5113126;28;20061;-78
2021/09/23 03:13:32;;;;;;;23.42;13.75;;;13.30;76.70;;;;;;5094804;28;20138;-77
2021/09/23 03:15:58;;;;;;;24.73;13.23;;;13.30;76.70;;;;;;5112904;28;20027;-77
2021/09/23 03:18:24;;;;;;;27.75;14.25;;;13.30;76.80;;;;;;5094793;28;20031;-76
2021/09/23 03:20:50;;;;;;;23.50;14.30;;;13.20;76.70;;;;;;5091981;28;20085;-76
2021/09/23 03:23:16;;;;;;;26.98;14.50;;;13.20;76.80;;;;;;5094711;28;20125;-77
2021/09/23 03:25:43;;;;;;;25.67;14.35;;;13.20;76.90;;;;;;5094512;28;20043;-77
2021/09/23 03:28:09;;;;;;;26.88;15.07;;;13.20;76.90;;;;;;5094629;28;20123;-77
2021/09/23 03:30:35;;;;;;;26.85;14.95;;;13.20;76.90;;;;;;5094682;28;20026;-76
2021/09/23 03:33:05;;;;;;;26.00;15.02;;;13.10;76.90;;;;;;5094578;28;20106;-77
2021/09/23 03:35:32;;;;;;;25.50;14.23;;;13.10;77.00;;;;;;5094713;28;20049;-77
2021/09/23 03:37:58;;;;;;;27.38;14.85;;;13.10;77.00;;;;;;5094635;28;20165;-77
2021/09/23 03:40:25;;;;;;;26.40;13.75;;;13.10;77.00;;;;;;5094529;28;20023;-77
2021/09/23 03:42:51;;;;;;;23.02;14.18;;;13.10;77.00;;;;;;5094543;28;20023;-77
2021/09/23 03:45:17;;;;;;;23.67;14.30;;;13.10;77.00;;;;;;5094445;28;20082;-76
2021/09/23 03:47:43;;;;;;;27.23;15.13;;;13.00;77.10;;;;;;5094486;28;20058;-76
2021/09/23 03:50:10;;;;;;;23.02;14.43;;;13.00;77.00;;;;;;5094320;28;20062;-76
2021/09/23 03:52:35;;;;;;;24.80;14.48;;;13.00;77.10;;;;;;5094442;28;20039;-76
2021/09/23 03:55:02;;;;;;;23.58;13.77;;;13.00;77.10;;;;;;5112871;28;20052;-76
2021/09/23 03:57:27;;;;;;;23.92;14.90;;;13.00;77.20;;;;;;5094486;28;20020;-76
2021/09/23 03:59:53;;;;;;;24.27;14.25;;;13.00;77.20;;;;;;5094311;28;20023;-76
2021/09/23 04:02:19;;;;;;;25.95;14.40;;;12.90;77.10;;;;;;5094263;28;20035;-76
2021/09/23 04:04:45;;;;;;;21.25;13.73;;;13.00;77.20;;;;;;5094231;28;20028;-75
2021/09/23 04:07:11;;;;;;;22.08;13.55;;;12.90;77.20;;;;;;5094140;28;20529;-76
2021/09/23 04:09:37;;;;;;;22.65;14.07;;;12.90;77.20;;;;;;5094344;28;20478;-76
2021/09/23 04:12:03;;;;;;;25.15;14.05;;;12.90;77.30;;;;;;5095319;28;20381;-76
2021/09/23 04:14:28;;;;;;;22.38;14.55;;;12.90;77.30;;;;;;5098001;28;20487;-76
2021/09/23 04:16:54;;;;;;;24.35;13.85;;;12.90;77.30;;;;;;5098045;28;20027;-76
2021/09/23 04:19:20;;;;;;;24.13;14.60;;;12.90;77.40;;;;;;5097874;28;20038;-77
2021/09/23 04:21:46;;;;;;;22.70;14.05;;;12.80;77.40;;;;;;5097872;28;20547;-76
2021/09/23 04:24:12;;;;;;;21.98;14.73;;;12.80;77.40;;;;;;5097773;28;20031;-77
2021/09/23 04:26:38;;;;;;;24.65;14.38;;;12.80;77.50;;;;;;5097862;28;20088;-76
2021/09/23 04:29:04;;;;;;;20.73;14.25;;;12.80;77.80;;;;;;5097747;28;20042;-76
2021/09/23 04:31:29;;;;;;;23.80;14.82;;;12.80;77.60;;;;;;5097775;28;20114;-76
2021/09/23 04:33:55;;;;;;;19.75;13.75;;;12.80;77.60;;;;;;5097721;28;20024;-77
2021/09/23 04:36:22;;;;;;;24.42;14.50;;;12.80;77.60;;;;;;5097621;28;20031;-76
2021/09/23 04:38:47;;;;;;;22.23;13.82;;;12.80;77.60;;;;;;5097553;28;20034;-76
2021/09/23 04:41:13;;;;;;;24.17;14.30;;;12.80;77.60;;;;;;5097389;28;20058;-77
2021/09/23 04:43:40;;;;;;;23.15;14.60;;;12.80;77.70;;;;;;5097341;28;20027;-76
2021/09/23 04:46:07;;;;;;;21.30;14.15;;;12.80;77.80;;;;;;5097369;28;20024;-77
2021/09/23 04:48:33;;;;;;;24.42;14.32;;;12.80;77.80;;;;;;5097364;28;20481;-76
2021/09/23 04:50:58;;;;;;;22.92;15.07;;;12.80;77.80;;;;;;5097286;28;20025;-77
2021/09/23 04:53:24;;;;;;;26.25;14.52;;;12.80;77.90;;;;;;5115568;28;20040;-78
2021/09/23 04:55:50;;;;;;;23.48;13.98;;;12.80;77.90;;;;;;5097254;28;20023;-77
2021/09/23 04:58:15;;;;;;;25.50;14.75;;;12.80;77.90;;;;;;5097336;28;20032;-78
2021/09/23 05:00:41;;;;;;;24.20;14.32;;;12.80;78.00;;;;;;5097421;28;20031;-77
2021/09/23 05:03:07;;;;;;;24.50;15.88;;;12.80;78.00;;;;;;5097143;28;20020;-78
2021/09/23 05:05:33;;;;;;;21.50;14.50;;;12.80;78.00;;;;;;5097162;28;20029;-77
2021/09/23 05:07:59;;;;;;;25.52;14.77;;;12.80;78.10;;;;;;5097013;28;20034;-77
2021/09/23 05:10:27;;;;;;;26.38;14.80;;;12.80;78.10;;;;;;5097095;28;20047;-76
2021/09/23 05:12:53;;;;;;;25.55;15.65;;;12.80;78.20;;;;;;5096976;28;20487;-77
2021/09/23 05:15:19;;;;;;;23.13;14.63;;;12.80;78.20;;;;;;5097155;28;20031;-77
2021/09/23 05:17:44;;;;;;;24.13;14.80;;;12.80;78.30;;;;;;5096843;28;20229;-77
2021/09/23 05:20:10;;;;;;;28.50;15.32;;;12.80;78.30;;;;;;5096822;28;20031;-78
2021/09/23 05:22:36;;;;;;;21.55;14.75;;;12.80;78.30;;;;;;5093805;28;20525;-77
2021/09/23 05:25:03;;;;;;;22.45;14.93;;;12.70;78.30;;;;;;5113788;28;20048;-77
2021/09/23 05:27:28;;;;;;;23.85;15.20;;;12.80;78.40;;;;;;5096541;28;20096;-77
2021/09/23 05:29:54;;;;;;;23.65;15.63;;;12.70;78.40;;;;;;5096492;28;20036;-77
2021/09/23 05:32:20;;;;;;;24.20;15.32;;;12.70;78.50;;;;;;5096546;28;20031;-76
2021/09/23 05:34:45;;;;;;;23.77;16.27;;;12.70;78.50;;;;;;5096474;28;20028;-76
2021/09/23 05:37:11;;;;;;;22.85;14.75;;;12.70;78.60;;;;;;5096310;28;20024;-76
2021/09/23 05:39:37;;;;;;;20.17;14.18;;;12.70;78.60;;;;;;5096266;28;20027;-77
2021/09/23 05:42:03;;;;;;;21.60;14.00;;;12.70;78.60;;;;;;5096262;28;20027;-77
2021/09/23 05:44:29;;;;;;;21.83;14.18;;;12.70;78.70;;;;;;5096293;28;20043;-76
2021/09/23 05:46:56;;;;;;;21.98;15.88;;;12.70;78.70;;;;;;5096362;28;20020;-76
2021/09/23 05:49:22;;;;;;;26.30;16.05;;;12.70;78.70;;;;;;5096090;28;20055;-76
2021/09/23 05:51:51;;;;;;;23.58;14.52;;;12.70;78.80;;;;;;5095936;28;20022;-77
2021/09/23 05:54:17;;;;;;;24.02;15.43;;;12.70;78.80;;;;;;5095984;28;20035;-76
2021/09/23 05:56:43;;;;;;;22.65;14.70;;;12.70;78.80;;;;;;5095681;28;20032;-76
2021/09/23 05:59:08;;;;;;;20.17;13.75;;;12.80;78.80;;;;;;5095937;28;20026;-77
2021/09/23 06:01:37;;;;;;;24.55;14.70;;;12.80;78.80;;;;;;5095959;28;20015;-76
2021/09/23 06:04:02;;;;;;;22.55;14.63;;;12.80;78.80;;;;;;5096012;28;20067;-76
2021/09/23 06:06:28;;;;;;;24.88;15.52;;;12.80;78.70;;;;;;5095796;28;20076;-77
2021/09/23 06:08:54;;;;;;;21.60;14.68;;;12.90;78.80;;;;;;5095779;28;20073;-77
2021/09/23 06:11:20;;;;;;;25.15;16.50;;;12.90;78.80;;;;;;5096000;28;20096;-77
2021/09/23 06:13:46;;;;;;;23.13;15.55;;;12.90;78.80;;;;;;5095749;28;20077;-76
2021/09/23 06:16:12;;;;;;;23.67;15.70;;;12.90;78.80;;;;;;5095665;28;20026;-77
2021/09/23 06:22:00;;;;;;;24.25;17.38;;;13.00;79.00;;;;;;5113953;28;20092;-76
2021/09/23 06:24:26;;;;;;;26.30;17.83;;;13.00;79.10;;;;;;5095616;28;20028;-76
2021/09/23 06:30:14;;;;;;;20.98;15.00;;;13.00;79.20;;;;;;5113816;28;20112;-77
2021/09/23 06:32:40;;;;;;;22.60;15.00;;;13.10;79.10;;;;;;5113806;28;20027;-77
2021/09/23 06:35:06;;;;;;;22.58;15.45;;;13.10;79.10;;;;;;5095097;28;20038;-76
2021/09/23 06:37:32;;;;;;;19.27;14.02;;;13.20;79.10;;;;;;5092485;28;20394;-75
2021/09/23 06:39:58;;;;;;;20.45;14.77;;;13.20;79.00;;;;;;5095305;28;20106;-75
2021/09/23 06:42:23;;;;;;;22.85;14.65;;;13.30;78.90;;;;;;5095380;28;20031;-76
2021/09/23 06:44:49;;;;;;;24.98;16.85;;;13.30;78.90;;;;;;5095211;28;20535;-76
2021/09/23 06:47:15;;;;;;;19.98;14.88;;;13.40;78.90;;;;;;5095295;28;20023;-72
2021/09/23 06:49:42;;;;;;;20.33;14.52;;;13.50;79.00;;;;;;5095139;28;20027;-73
2021/09/23 06:52:07;;;;;;;21.20;15.15;;;13.50;79.00;;;;;;5094997;28;20053;-74
2021/09/23 06:54:33;;;;;;;22.55;15.52;;;13.50;79.00;;;;;;5113433;28;20028;-71
2021/09/23 06:56:59;;;;;;;21.33;14.85;;;13.50;79.00;;;;;;5095109;28;20035;-69
2021/09/23 06:59:24;;;;;;;24.92;16.52;;;13.50;79.00;;;;;;5095005;28;20082;-73
2021/09/23 07:01:50;;;;;;;22.30;16.27;;;13.60;79.20;;;;;;5094945;28;20023;-74
2021/09/23 07:04:16;;;;;;;22.30;14.23;;;13.60;79.20;;;;;;5095090;28;20015;-74
2021/09/23 07:06:42;;;;;;;22.63;15.75;;;13.60;79.30;;;;;;5095100;28;20036;-74
2021/09/23 07:09:08;;;;;;;21.83;15.32;;;13.60;79.40;;;;;;5094863;28;20096;-75
2021/09/23 07:11:37;;;;;;;21.92;15.10;;;13.70;79.60;;;;;;5091995;28;20032;-74
2021/09/23 07:14:03;;;;;;;20.90;15.80;;;13.70;79.60;;;;;;5094874;28;20115;-75
2021/09/23 07:16:29;;;;;;;25.42;16.02;;;13.70;79.70;;;;;;5094824;28;20088;-71
2021/09/23 07:18:55;;;;;;;21.17;14.35;;;13.70;79.80;;;;;;5113080;28;20028;-72
2021/09/23 07:21:21;;;;;;;24.58;16.20;;;13.80;79.90;;;;;;5094722;28;20111;-72
2021/09/23 07:23:46;;;;;;;26.15;17.05;;;13.80;80.00;;;;;;5094804;28;20053;-74
2021/09/23 07:26:12;;;;;;;25.13;16.90;;;13.80;80.20;;;;;;5094448;28;20051;-73
2021/09/23 07:28:38;;;;;;;24.75;17.08;;;13.90;80.20;;;;;;5094725;28;20034;-76
2021/09/23 07:31:03;;;;;;;25.55;17.08;;;13.90;80.30;;;;;;5094852;28;20023;-78
2021/09/23 07:33:29;;;;;;;30.17;19.38;;;14.00;80.50;;;;;;5094716;28;20107;-78
2021/09/23 07:35:55;;;;;;;25.60;17.42;;;14.20;80.70;;;;;;5092078;28;20028;-78
2021/09/23 07:38:21;;;;;;;24.77;18.27;;;14.40;80.70;;;;;;5094863;28;20123;-80
2021/09/23 07:40:48;;;;;;;30.58;20.50;;;14.50;80.80;;;;;;5094752;28;20054;-80
2021/09/23 07:43:13;;;;;;;28.20;19.15;;;14.60;80.90;;;;;;5095283;28;20040;-81
2021/09/23 07:45:39;;;;;;;26.30;18.48;;;14.70;80.80;;;;;;5094730;28;20028;-79
2021/09/23 07:48:05;;;;;;;23.73;17.08;;;14.90;80.90;;;;;;5115293;28;20020;-79
2021/09/23 07:50:31;;;;;;;26.58;18.45;;;14.90;80.60;;;;;;5100580;28;20031;-82
2021/09/23 07:52:56;;;;;;;26.48;17.85;;;15.00;80.70;;;;;;5099001;28;20028;-81
2021/09/23 07:55:22;;;;;;;22.67;17.08;;;15.10;80.70;;;;;;5098536;28;20043;-79
2021/09/23 07:57:49;;;;;;;22.95;17.30;;;15.20;80.70;;;;;;5098529;28;20528;-80
2021/09/23 08:00:16;;;;;;;24.73;16.08;;;15.20;80.60;;;;;;5098902;28;20024;-80
2021/09/23 08:02:43;;;;;;;28.08;17.80;;;15.30;80.90;;;;;;5098364;28;20028;-80
2021/09/23 08:05:09;;;;;;;24.85;16.52;;;15.30;81.20;;;;;;5098462;28;20107;-79
2021/09/23 08:07:35;;;;;;;23.75;15.90;;;15.30;81.10;;;;;;5098302;28;20027;-82
2021/09/23 08:10:00;;;;;;;26.65;16.45;;;15.40;81.20;;;;;;5098202;28;20024;-81
2021/09/23 08:12:27;;;;;;;29.90;19.65;;;15.40;81.40;;;;;;5098589;28;20187;-81
2021/09/23 08:14:53;;;;;;;23.80;16.92;;;15.50;82.00;;;;;;5098456;28;20024;-81
2021/09/23 08:17:19;;;;;;;22.85;16.23;;;15.50;81.80;;;;;;5098126;28;20364;-80
2021/09/23 08:19:45;;;;;;;25.50;16.65;;;15.60;81.70;;;;;;5097991;28;20030;-80
2021/09/23 08:22:10;;;;;;;20.17;15.48;;;15.70;82.60;;;;;;5098021;28;20030;-79
2021/09/23 08:24:36;;;;;;;20.02;13.88;;;15.70;81.70;;;;;;5097846;28;20126;-79
2021/09/23 08:27:03;;;;;;;22.02;15.88;;;15.80;81.60;;;;;;5098285;28;20360;-81
2021/09/23 08:29:28;;;;;;;21.65;14.98;;;15.90;81.90;;;;;;5097872;28;20462;-80
2021/09/23 08:31:55;;;;;;;21.20;15.57;;;16.00;81.90;;;;;;5097636;28;20058;-80
2021/09/23 08:34:21;;;;;;;20.23;14.18;;;16.10;81.90;;;;;;5097807;28;20073;-80
2021/09/23 08:36:58;;;;;;;;;;;;;;;;;;;;;
2021/09/23 08:39:24;;;;;;;18.52;13.70;;;16.20;81.60;;;;;;5115906;28;20513;-78
2021/09/23 08:41:49;;;;;;;20.25;14.55;;;16.30;81.40;;;;;;5097441;28;20103;-79
2021/09/23 08:47:37;;;;;;;21.98;13.95;;;16.60;80.90;;;;;;5115783;28;20022;-79
2021/09/23 08:50:11;;;;;;;16.33;13.18;;;16.70;80.60;;;;;;5097288;28;20027;-80
2021/09/23 08:52:38;;;;;;;20.33;14.45;;;16.70;80.40;;;;;;5097353;28;20057;-80
2021/09/23 08:55:04;;;;;;;20.27;15.80;;;16.70;80.30;;;;;;5097800;28;20103;-80
2021/09/23 08:57:30;;;;;;;23.23;15.95;;;16.70;80.30;;;;;;5097271;28;20019;-80
2021/09/23 08:59:56;;;;;;;22.52;16.23;;;16.80;80.30;;;;;;5097022;28;20032;-79
2021/09/23 09:02:24;;;;;;;21.63;15.60;;;16.80;80.20;;;;;;5115376;28;20043;-79
2021/09/23 09:04:56;;;;;;;20.35;14.90;;;16.80;80.20;;;;;;5097109;28;20399;-80
2021/09/23 09:07:26;;;;;;;22.40;15.25;;;17.00;80.10;;;;;;5116059;28;20024;-79
2021/09/23 09:09:59;;;;;;;24.17;16.63;;;17.00;79.90;;;;;;5115380;28;20023;-81
2021/09/23 09:12:27;;;;;;;19.65;14.40;;;17.00;79.80;;;;;;5095788;28;20093;-79
2021/09/23 09:14:53;;;;;;;20.13;14.73;;;17.00;79.80;;;;;;5097039;28;20020;-79
2021/09/23 09:17:19;;;;;;;18.60;13.65;;;17.10;79.80;;;;;;5097040;28;20368;-78
2021/09/23 09:19:55;;;;;;;17.90;14.23;;;17.10;79.70;;;;;;5115606;28;20019;-78
2021/09/23 09:22:24;;;;;;;18.45;13.68;;;17.10;79.70;;;;;;5097015;28;20084;-79
2021/09/23 09:24:58;;;;;;;18.48;12.48;;;17.20;79.70;;;;;;5096670;28;20149;-78
2021/09/23 09:27:33;;;;;;;17.40;12.48;;;17.20;79.70;;;;;;5096849;28;20122;-79
2021/09/23 09:30:22;;;;;;;16.63;12.52;;;17.20;79.80;;;;;;5096746;28;20039;-79
2021/09/23 09:32:51;;;;;;;13.32;10.18;;;17.30;79.90;;;;;;5096732;28;20031;-79
2021/09/23 09:35:23;;;;;;;13.60;10.07;;;17.30;79.70;;;;;;5096711;28;20052;-79
2021/09/23 09:37:51;;;;;;;18.35;10.30;;;17.40;79.60;;;;;;5096770;28;20118;-79
2021/09/23 09:40:38;;;;;;;13.82;9.85;;;17.40;79.40;;;;;;5096798;28;20030;-79
2021/09/23 09:43:06;;;;;;;13.68;9.52;;;17.50;79.30;;;;;;5115020;28;20039;-79
2021/09/23 09:45:33;;;;;;;14.57;10.48;;;17.50;79.10;;;;;;5096903;28;20394;-79
2021/09/23 09:47:59;;;;;;;16.35;10.63;;;17.50;79.10;;;;;;5096694;28;20063;-79
2021/09/23 09:50:35;;;;;;;14.48;10.07;;;17.60;79.00;;;;;;5096987;28;20024;-79
2021/09/23 09:53:05;;;;;;;11.52;9.35;;;17.60;78.90;;;;;;5097022;28;20030;-78
2021/09/23 09:55:36;;;;;;;14.80;10.00;;;17.70;78.70;;;;;;5097299;28;20130;-79
2021/09/23 09:58:03;;;;;;;14.63;9.70;;;17.90;78.60;;;;;;5097330;28;20413;-79
2021/09/23 10:00:31;;;;;;;13.43;9.55;;;17.90;78.40;;;;;;5097353;28;20019;-79
2021/09/23 10:02:57;;;;;;;14.75;9.38;;;18.00;78.10;;;;;;5096814;28;20019;-79
2021/09/23 10:05:24;;;;;;;13.63;9.38;;;18.20;77.90;;;;;;5096653;28;20027;-79
2021/09/23 10:07:52;;;;;;;12.60;9.27;;;18.30;77.60;;;;;;5096570;28;20024;-80
2021/09/23 10:10:20;;;;;;;13.18;9.57;;;18.40;77.20;;;;;;5095877;28;20063;-80
2021/09/23 10:12:48;;;;;;;9.30;7.57;;;18.40;77.00;;;;;;5096133;28;20514;-79
2021/09/23 10:15:17;;;;;;;11.52;9.13;;;18.50;77.50;;;;;;5096209;28;20031;-79
2021/09/23 10:17:47;;;;;;;13.73;9.23;;;18.50;76.50;;;;;;5095998;28;20554;-80
2021/09/23 10:20:23;;;;;;;10.95;8.70;;;18.60;76.20;;;;;;5096625;28;20035;-80
2021/09/23 10:22:49;;;;;;;14.68;10.07;;;18.60;76.20;;;;;;5096004;28;20031;-80
2021/09/23 10:25:18;;;;;;;11.68;8.88;;;18.60;76.00;;;;;;5095757;28;20050;-80
2021/09/23 10:28:01;;;;;;;12.73;8.75;;;18.60;75.80;;;;;;5095683;28;20395;-80
2021/09/23 10:30:31;;;;;;;11.38;7.03;;;18.70;75.60;;;;;;5095693;28;20062;-80
2021/09/23 10:32:58;;;;;;;10.48;7.32;;;18.60;75.20;;;;;;5095959;28;20032;-80
2021/09/23 10:35:24;;;;;;;9.73;7.40;;;18.70;75.00;;;;;;5095450;28;20020;-80
2021/09/23 10:37:54;;;;;;;9.52;7.57;;;18.60;74.90;;;;;;5095476;28;20031;-80
2021/09/23 10:40:21;;;;;;;11.20;7.45;;;18.60;74.90;;;;;;5095609;28;20487;-80
2021/09/23 10:42:49;;;;;;;10.60;6.50;;;18.60;75.20;;;;;;5095454;28;20506;-80
2021/09/23 10:45:17;;;;;;;8.73;6.72;;;18.60;75.30;;;;;;5113898;28;20499;-80
2021/09/23 10:47:49;;;;;;;8.13;6.25;;;18.50;75.20;;;;;;5095396;28;20024;-81
2021/09/23 10:50:22;;;;;;;8.68;6.53;;;18.50;75.30;;;;;;5095353;28;20027;-81
2021/09/23 10:52:49;;;;;;;11.32;7.00;;;18.40;75.10;;;;;;5113568;28;20047;-81
2021/09/23 10:55:15;;;;;;;13.38;7.95;;;18.30;75.30;;;;;;5095372;28;20126;-82
2021/09/23 10:57:40;;;;;;;10.32;6.20;;;18.30;75.60;;;;;;5113455;28;20108;-82
2021/09/23 11:00:09;;;;;;;8.93;5.50;;;18.30;75.70;;;;;;5095269;28;20457;-82
2021/09/23 11:02:35;;;;;;;7.07;5.00;;;18.30;75.80;;;;;;5095426;28;20455;-81
2021/09/23 11:05:05;;;;;;;6.78;5.30;;;18.40;75.80;;;;;;5095344;28;20031;-82
2021/09/23 11:07:35;;;;;;;6.45;4.38;;;18.40;75.70;;;;;;5095039;28;20019;-82
2021/09/23 11:10:12;;;;;;;6.47;4.07;;;18.40;75.60;;;;;;5094992;28;20028;-81
2021/09/23 11:12:39;;;;;;;5.82;3.88;;;18.40;75.50;;;;;;5095278;28;20024;-81
2021/09/23 11:15:09;;;;;;;5.53;3.88;;;18.40;75.30;;;;;;5087211;28;20111;-81
2021/09/23 11:17:37;;;;;;;6.43;4.03;;;18.50;75.30;;;;;;5091883;28;20028;-82
2021/09/23 11:23:26;;;;;;;8.05;3.53;;;18.50;74.80;;;;;;5117467;28;20189;-81
2021/09/23 11:25:51;;;;;;;8.68;3.80;;;18.50;74.80;;;;;;5098977;28;20047;-81
2021/09/23 11:28:22;;;;;;;5.80;3.65;;;18.50;74.50;;;;;;5098963;28;20019;-81
2021/09/23 11:30:52;;;;;;;5.55;3.00;;;18.50;74.60;;;;;;5099149;28;20026;-81
2021/09/23 11:33:21;;;;;;;5.32;3.17;;;18.60;74.60;;;;;;5098762;28;20031;-80
2021/09/23 11:35:47;;;;;;;6.45;3.03;;;18.60;74.50;;;;;;5098864;28;20062;-81
2021/09/23 11:38:18;;;;;;;5.43;2.80;;;18.70;74.30;;;;;;5098881;28;20040;-81
2021/09/23 11:40:46;;;;;;;7.35;2.78;;;18.80;74.10;;;;;;5098613;28;20491;-81
2021/09/23 11:43:14;;;;;;;4.75;3.05;;;18.80;74.40;;;;;;5098935;28;20174;-81
2021/09/23 11:45:51;;;;;;;3.88;2.80;;;18.80;73.60;;;;;;5117342;28;20046;-81
2021/09/23 11:48:23;;;;;;;5.43;2.90;;;18.80;73.60;;;;;;5098891;28;20425;-82
2021/09/23 11:51:01;;;;;;;7.80;3.08;;;18.90;73.50;;;;;;5098740;28;20037;-81
2021/09/23 11:53:35;;;;;;;4.80;2.80;;;19.00;73.00;;;;;;5098682;28;20026;-82
2021/09/23 11:56:15;;;;;;;5.68;2.92;;;19.20;72.60;;;;;;5098771;28;20470;-82
2021/09/23 11:58:45;;;;;;;3.55;2.60;;;19.20;72.20;;;;;;5117062;28;20077;-81
2021/09/23 12:01:12;;;;;;;7.43;3.00;;;19.30;71.90;;;;;;5098807;28;20068;-81
2021/09/23 12:03:43;;;;;;;3.97;2.65;;;19.40;71.40;;;;;;5098611;28;20515;-81
2021/09/23 12:09:33;;;;;;;7.63;3.30;;;19.60;70.70;;;;;;5116965;28;20477;-81
2021/09/23 12:11:59;;;;;;;5.68;3.30;;;19.60;70.10;;;;;;5099451;28;20024;-80
2021/09/23 12:14:25;;;;;;;5.75;3.40;;;19.70;70.20;;;;;;5098691;28;20015;-81
2021/09/23 12:17:07;;;;;;;5.25;2.85;;;19.70;69.70;;;;;;5098675;28;20098;-81
2021/09/23 12:19:33;;;;;;;6.70;3.20;;;19.80;69.70;;;;;;5116514;28;20432;-82
2021/09/23 12:21:59;;;;;;;4.93;2.72;;;19.90;68.70;;;;;;5098258;28;20024;-81
2021/09/23 12:24:37;;;;;;;7.53;2.95;;;19.90;68.90;;;;;;5098047;28;20119;-81
2021/09/23 12:27:04;;;;;;;6.22;3.03;;;20.00;68.60;;;;;;5098044;28;20035;-81
2021/09/23 12:29:30;;;;;;;4.57;2.67;;;20.00;68.60;;;;;;5098214;28;20031;-81
2021/09/23 12:32:09;;;;;;;5.15;2.72;;;19.90;68.40;;;;;;5097875;28;20023;-81
2021/09/23 12:34:44;;;;;;;4.32;2.50;;;19.90;68.50;;;;;;5097228;28;20484;-81
2021/09/23 12:37:11;;;;;;;6.38;2.58;;;20.00;68.70;;;;;;5097288;28;20028;-81
2021/09/23 12:39:44;;;;;;;4.88;2.80;;;20.00;68.30;;;;;;5097707;28;20114;-81
2021/09/23 12:42:10;;;;;;;6.13;3.03;;;20.10;68.20;;;;;;5097319;28;20020;-81
2021/09/23 12:44:39;;;;;;;7.47;3.22;;;20.00;68.30;;;;;;5097530;28;20023;-80
2021/09/23 12:47:19;;;;;;;6.55;2.58;;;20.00;68.60;;;;;;5097136;28;20039;-80